createdAt,value
2019-04-03T00:01:14.310Z,17.10
2019-04-03T00:03:43.888Z,17.67
2019-04-03T00:06:13.533Z,19.63
2019-04-03T00:08:43.203Z,15.13
2019-04-03T00:11:12.764Z,19.83
2019-04-03T00:13:42.607Z,14.40
2019-04-03T00:16:15.323Z,12.10
2019-04-03T00:18:43.845Z,20.10
2019-04-03T00:21:13.606Z,10.63
2019-04-03T00:23:43.350Z,16.30
2019-04-03T00:26:13.216Z,15.73
2019-04-03T00:28:42.839Z,16.50
2019-04-03T00:31:12.442Z,11.37
2019-04-03T00:33:42.284Z,14.00
2019-04-03T00:36:11.873Z,12.90
2019-04-03T00:38:41.425Z,14.20
2019-04-03T00:41:11.083Z,14.40
2019-04-03T00:43:40.752Z,14.07
2019-04-03T00:46:10.278Z,15.87
2019-04-03T00:48:39.934Z,17.23
2019-04-03T00:51:09.579Z,16.50
2019-04-03T00:53:39.188Z,14.53
2019-04-03T00:56:08.913Z,19.23
2019-04-03T00:58:40.701Z,18.07
2019-04-03T01:01:12.222Z,26.87
2019-04-03T01:03:43.481Z,26.23
2019-04-03T01:06:19.364Z,22.73
2019-04-03T01:09:10.793Z,17.20
2019-04-03T01:11:40.623Z,19.73
2019-04-03T01:14:10.627Z,27.27
2019-04-03T01:16:40.433Z,22.50
2019-04-03T01:19:10.167Z,25.17
2019-04-03T01:21:39.858Z,21.47
2019-04-03T01:24:09.585Z,21.97
2019-04-03T01:26:40.660Z,26.57
2019-04-03T01:29:12.661Z,25.40
2019-04-03T01:31:42.988Z,27.00
2019-04-03T01:34:13.907Z,30.03
2019-04-03T01:36:43.565Z,26.17
2019-04-03T01:39:13.278Z,27.67
2019-04-03T01:41:42.938Z,33.60
2019-04-03T01:44:12.521Z,27.07
2019-04-03T01:46:42.593Z,33.40
2019-04-03T01:49:12.309Z,28.00
2019-04-03T01:51:42.154Z,31.30
2019-04-03T01:54:11.790Z,29.13
2019-04-03T01:56:41.469Z,29.93
2019-04-03T01:59:11.201Z,27.23
2019-04-03T02:01:40.786Z,26.90
2019-04-03T02:04:12.133Z,31.47
2019-04-03T02:06:43.416Z,32.97
2019-04-03T02:09:15.284Z,35.33
2019-04-03T02:11:44.515Z,30.27
2019-04-03T02:14:14.111Z,33.23
2019-04-03T02:16:43.791Z,23.90
2019-04-03T02:19:13.375Z,28.70
2019-04-03T02:21:43.126Z,30.13
2019-04-03T02:24:12.911Z,30.67
2019-04-03T02:26:42.659Z,27.30
2019-04-03T02:29:12.727Z,32.43
2019-04-03T02:31:43.184Z,25.53
2019-04-03T02:34:13.121Z,30.27
2019-04-03T02:36:44.028Z,24.87
2019-04-03T02:39:14.110Z,28.83
2019-04-03T02:41:43.740Z,32.27
2019-04-03T02:44:13.539Z,28.70
2019-04-03T02:46:43.153Z,31.60
2019-04-03T02:49:13.069Z,27.20
2019-04-03T02:51:45.518Z,25.70
2019-04-03T02:54:27.145Z,29.70
2019-04-03T02:56:57.589Z,26.67
2019-04-03T02:59:46.519Z,29.37
2019-04-03T03:02:16.163Z,28.80
2019-04-03T03:04:54.757Z,24.93
2019-04-03T03:07:23.386Z,26.17
2019-04-03T03:09:54.145Z,32.50
2019-04-03T03:12:25.002Z,22.87
2019-04-03T03:14:56.092Z,28.47
2019-04-03T03:17:27.310Z,29.47
2019-04-03T03:20:00.235Z,28.77
2019-04-03T03:22:30.057Z,25.10
2019-04-03T03:25:01.007Z,22.80
2019-04-03T03:27:31.404Z,28.40
2019-04-03T03:30:02.377Z,29.13
2019-04-03T03:32:35.764Z,29.40
2019-04-03T03:35:12.366Z,23.50
2019-04-03T03:37:37.495Z,25.90
2019-04-03T03:40:08.088Z,26.10
2019-04-03T03:42:38.251Z,29.37
2019-04-03T03:45:08.527Z,31.50
2019-04-03T03:47:38.987Z,31.10
2019-04-03T03:50:09.892Z,28.10
2019-04-03T03:52:39.889Z,28.80
2019-04-03T03:55:09.726Z,25.47
2019-04-03T03:57:41.174Z,29.63
2019-04-03T04:00:11.177Z,29.67
2019-04-03T04:02:43.464Z,26.80
2019-04-03T04:05:12.476Z,38.37
2019-04-03T04:07:42.317Z,27.10
2019-04-03T04:10:12.056Z,26.87
2019-04-03T04:12:43.360Z,26.80
2019-04-03T04:15:13.397Z,26.00
2019-04-03T04:17:43.516Z,23.00
2019-04-03T04:20:13.306Z,20.47
2019-04-03T04:22:44.269Z,18.17
2019-04-03T04:25:14.155Z,17.70
2019-04-03T04:27:44.044Z,11.13
2019-04-03T04:30:16.778Z,13.20
2019-04-03T04:32:46.944Z,8.20
2019-04-03T04:35:37.007Z,9.97
2019-04-03T04:38:06.576Z,8.23
2019-04-03T04:40:36.219Z,11.90
2019-04-03T04:43:07.851Z,12.20
2019-04-03T04:45:37.248Z,11.80
2019-04-03T04:48:06.821Z,7.77
2019-04-03T04:50:36.448Z,10.20
2019-04-03T04:53:06.030Z,12.97
2019-04-03T04:55:35.990Z,11.60
2019-04-03T04:58:05.793Z,9.80
2019-04-03T05:00:35.530Z,9.67
2019-04-03T05:03:05.384Z,9.63
2019-04-03T05:05:35.190Z,9.83
2019-04-03T05:08:04.819Z,10.63
2019-04-03T05:10:34.948Z,8.20
2019-04-03T05:13:05.793Z,7.37
2019-04-03T05:15:35.497Z,11.53
2019-04-03T05:18:05.238Z,13.30
2019-04-03T05:20:35.130Z,10.40
2019-04-03T05:23:04.927Z,10.43
2019-04-03T05:25:34.795Z,11.03
2019-04-03T05:28:04.944Z,7.90
2019-04-03T05:30:37.149Z,11.80
2019-04-03T05:33:06.489Z,12.47
2019-04-03T05:35:37.568Z,12.00
2019-04-03T05:38:07.318Z,12.37
2019-04-03T05:40:37.642Z,12.60
2019-04-03T05:43:07.486Z,12.17
2019-04-03T05:45:37.207Z,11.93
2019-04-03T05:48:12.519Z,10.23
2019-04-03T05:50:38.344Z,12.13
2019-04-03T05:53:08.177Z,13.97
2019-04-03T05:55:40.514Z,13.90
2019-04-03T05:58:09.258Z,11.00
2019-04-03T06:00:39.140Z,14.10
2019-04-03T06:03:08.894Z,13.27
2019-04-03T06:05:38.443Z,12.73
2019-04-03T06:08:08.095Z,16.30
2019-04-03T06:10:38.087Z,14.50
2019-04-03T06:13:07.905Z,18.37
2019-04-03T06:15:37.628Z,15.63
2019-04-03T06:18:07.211Z,14.70
2019-04-03T06:20:36.917Z,11.30
2019-04-03T06:23:06.672Z,12.33
2019-04-03T06:25:36.353Z,17.57
2019-04-03T06:28:06.046Z,11.93
2019-04-03T06:30:35.638Z,13.50
2019-04-03T06:33:05.298Z,13.30
2019-04-03T06:35:35.460Z,16.77
2019-04-03T06:38:05.332Z,13.83
2019-04-03T06:40:35.536Z,16.03
2019-04-03T06:43:06.398Z,17.93
2019-04-03T06:45:36.139Z,15.53
2019-04-03T06:48:05.922Z,19.20
2019-04-03T06:50:35.828Z,19.37
2019-04-03T06:53:05.851Z,23.07
2019-04-03T06:55:36.478Z,15.03
2019-04-03T06:58:06.479Z,14.90
2019-04-03T07:00:36.177Z,17.27
2019-04-03T07:03:05.871Z,13.30
2019-04-03T07:05:35.658Z,15.83
2019-04-03T07:08:06.089Z,17.43
2019-04-03T07:10:36.608Z,14.50
2019-04-03T07:13:06.701Z,19.20
2019-04-03T07:15:36.471Z,29.30
2019-04-03T07:18:06.711Z,16.07
2019-04-03T07:20:36.591Z,13.70
2019-04-03T07:23:06.427Z,16.03
2019-04-03T07:25:36.007Z,16.67
2019-04-03T07:28:08.569Z,14.10
2019-04-03T07:30:37.191Z,17.27
2019-04-03T07:33:06.996Z,14.33
2019-04-03T07:35:39.263Z,18.57
2019-04-03T07:38:09.187Z,14.07
2019-04-03T07:40:38.954Z,20.57
2019-04-03T07:43:08.734Z,18.07
2019-04-03T07:45:57.621Z,15.77
2019-04-03T07:48:27.340Z,18.33
2019-04-03T07:50:57.269Z,17.87
2019-04-03T07:53:27.523Z,15.60
2019-04-03T07:55:57.298Z,20.33
2019-04-03T07:58:27.035Z,20.40
2019-04-03T08:00:56.648Z,16.63
2019-04-03T08:03:26.622Z,20.27
2019-04-03T08:05:56.840Z,21.27
2019-04-03T08:08:26.943Z,16.93
2019-04-03T08:10:56.734Z,19.73
2019-04-03T08:13:26.305Z,20.53
2019-04-03T08:15:56.105Z,23.50
2019-04-03T08:18:25.634Z,18.03
2019-04-03T08:20:57.621Z,17.87
2019-04-03T08:23:26.757Z,20.30
2019-04-03T08:25:56.926Z,16.97
2019-04-03T08:28:30.187Z,19.00
2019-04-03T08:30:58.123Z,18.97
2019-04-03T08:33:28.270Z,15.37
2019-04-03T08:35:58.499Z,21.53
2019-04-03T08:38:28.077Z,20.43
2019-04-03T08:40:58.240Z,16.03
2019-04-03T08:43:28.035Z,15.73
2019-04-03T08:45:57.895Z,16.00
2019-04-03T08:48:27.650Z,21.17
2019-04-03T08:50:58.426Z,15.10
2019-04-03T08:53:29.349Z,15.30
2019-04-03T08:55:59.112Z,14.43
2019-04-03T08:58:28.942Z,14.17
2019-04-03T09:00:58.962Z,18.40
2019-04-03T09:03:28.847Z,19.20
2019-04-03T09:05:58.679Z,16.87
2019-04-03T09:08:28.515Z,17.10
2019-04-03T09:10:58.438Z,13.93
2019-04-03T09:13:28.118Z,18.87
2019-04-03T09:15:59.425Z,21.20
2019-04-03T09:18:30.808Z,16.30
2019-04-03T09:21:00.955Z,16.93
2019-04-03T09:23:30.510Z,15.20
2019-04-03T09:26:02.607Z,17.73
2019-04-03T09:28:31.805Z,23.77
2019-04-03T09:31:01.402Z,16.97
2019-04-03T09:33:31.022Z,21.83
2019-04-03T09:36:03.687Z,24.63
2019-04-03T09:38:32.097Z,17.47
2019-04-03T09:41:20.991Z,17.20
2019-04-03T09:43:51.888Z,18.30
2019-04-03T09:46:21.874Z,19.57
2019-04-03T09:48:51.631Z,17.03
2019-04-03T09:51:22.769Z,24.97
2019-04-03T09:53:52.641Z,25.97
2019-04-03T09:56:22.394Z,20.17
2019-04-03T09:58:52.180Z,21.17
2019-04-03T10:01:21.835Z,19.67
2019-04-03T10:03:55.358Z,20.00
2019-04-03T10:06:24.563Z,24.40
2019-04-03T10:08:54.197Z,18.53
2019-04-03T10:11:23.770Z,21.13
2019-04-03T10:13:54.935Z,18.43
2019-04-03T10:16:25.319Z,22.70
2019-04-03T10:18:55.054Z,19.50
2019-04-03T10:21:24.793Z,19.80
2019-04-03T10:23:54.562Z,21.73
2019-04-03T10:26:24.391Z,19.83
2019-04-03T10:28:54.145Z,17.07
2019-04-03T10:31:24.454Z,14.50
2019-04-03T10:33:54.713Z,16.27
2019-04-03T10:36:24.317Z,17.33
2019-04-03T10:38:53.914Z,10.83
2019-04-03T10:41:23.578Z,9.80
2019-04-03T10:43:53.439Z,10.20
2019-04-03T10:46:23.207Z,12.07
2019-04-03T10:48:52.742Z,12.83
2019-04-03T10:51:22.482Z,11.57
2019-04-03T10:53:53.796Z,12.03
2019-04-03T10:56:25.051Z,14.50
2019-04-03T10:58:54.664Z,11.47
2019-04-03T11:01:24.470Z,11.60
2019-04-03T11:03:54.137Z,11.00
2019-04-03T11:06:23.758Z,13.47
2019-04-03T11:08:53.413Z,9.70
2019-04-03T11:11:23.020Z,8.70
2019-04-03T11:13:52.677Z,7.13
2019-04-03T11:16:23.037Z,9.47
2019-04-03T11:18:59.896Z,8.83
2019-04-03T11:21:24.307Z,7.20
2019-04-03T11:23:53.931Z,11.30
2019-04-03T11:26:24.970Z,8.53
2019-04-03T11:28:54.995Z,4.90
2019-04-03T11:31:28.222Z,15.30
2019-04-03T11:34:18.307Z,10.60
2019-04-03T11:36:47.205Z,6.47
2019-04-03T11:39:17.019Z,8.83
2019-04-03T11:41:46.785Z,5.63
2019-04-03T11:44:16.733Z,9.70
2019-04-03T11:46:46.688Z,7.50
2019-04-03T11:49:19.351Z,11.57
2019-04-03T11:51:47.779Z,5.07
2019-04-03T11:54:17.409Z,3.77
2019-04-03T11:56:47.124Z,9.43
2019-04-03T11:59:24.907Z,7.97
2019-04-03T12:01:54.576Z,8.80
2019-04-03T12:04:24.248Z,5.70
2019-04-03T12:06:53.968Z,4.63
2019-04-03T12:09:24.236Z,7.40
2019-04-03T12:11:55.362Z,7.97
2019-04-03T12:14:25.038Z,5.37
2019-04-03T12:16:57.044Z,5.17
2019-04-03T12:19:26.223Z,25.40
2019-04-03T12:21:55.961Z,12.43
2019-04-03T12:24:25.558Z,3.53
2019-04-03T12:26:56.037Z,4.87
2019-04-03T12:29:26.465Z,3.10
2019-04-03T12:31:56.350Z,3.63
2019-04-03T12:34:26.140Z,5.47
2019-04-03T12:36:55.857Z,4.80
2019-04-03T12:39:27.025Z,3.00
2019-04-03T12:41:57.300Z,5.50
2019-04-03T12:44:27.023Z,3.70
2019-04-03T12:46:56.987Z,3.17
2019-04-03T12:49:26.838Z,4.70
2019-04-03T12:51:56.763Z,4.20
2019-04-03T12:54:26.518Z,5.47
2019-04-03T12:56:56.223Z,5.97
2019-04-03T12:59:26.105Z,5.10
2019-04-03T13:01:56.098Z,5.40
2019-04-03T13:04:28.202Z,4.73
2019-04-03T13:06:57.185Z,5.80
2019-04-03T13:09:27.459Z,3.70
2019-04-03T13:11:57.329Z,2.93
2019-04-03T13:14:27.911Z,3.03
2019-04-03T13:16:58.262Z,3.80
2019-04-03T13:19:28.139Z,4.53
2019-04-03T13:21:58.129Z,2.37
2019-04-03T13:24:28.226Z,2.40
2019-04-03T13:26:58.994Z,3.20
2019-04-03T13:29:29.075Z,2.40
2019-04-03T13:31:58.722Z,4.70
2019-04-03T13:34:31.108Z,2.10
2019-04-03T13:37:00.045Z,1.57
2019-04-03T13:39:32.543Z,1.60
2019-04-03T13:42:01.940Z,2.30
2019-04-03T13:44:31.933Z,2.30
2019-04-03T13:47:01.502Z,2.07
2019-04-03T13:49:31.455Z,1.90
2019-04-03T13:52:05.443Z,3.63
2019-04-03T13:54:32.598Z,3.70
2019-04-03T13:57:02.307Z,3.23
2019-04-03T13:59:40.896Z,2.50
2019-04-03T14:02:29.946Z,1.97
2019-04-03T14:04:59.655Z,5.63
2019-04-03T14:07:31.074Z,2.43
2019-04-03T14:10:00.691Z,4.47
2019-04-03T14:12:30.254Z,4.00
2019-04-03T14:15:00.003Z,3.80
2019-04-03T14:17:29.547Z,4.07
2019-04-03T14:19:59.466Z,1.67
2019-04-03T14:22:31.144Z,3.77
2019-04-03T14:25:00.837Z,4.80
2019-04-03T14:27:31.271Z,5.30
2019-04-03T14:30:01.051Z,3.07
2019-04-03T14:32:30.758Z,2.63
2019-04-03T14:35:06.329Z,2.57
2019-04-03T14:37:31.851Z,5.90
2019-04-03T14:40:01.529Z,9.73
2019-04-03T14:42:31.288Z,6.17
2019-04-03T14:45:01.314Z,1.83
2019-04-03T14:47:31.133Z,1.87
2019-04-03T14:50:04.452Z,6.03
2019-04-03T14:52:32.252Z,2.90
2019-04-03T14:55:17.194Z,1.93
2019-04-03T14:57:33.881Z,3.67
2019-04-03T15:00:22.046Z,5.73
2019-04-03T15:02:35.628Z,2.63
2019-04-03T15:05:07.411Z,1.60
2019-04-03T15:07:37.753Z,2.13
2019-04-03T15:10:08.432Z,1.77
2019-04-03T15:12:39.905Z,1.93
2019-04-03T15:15:10.030Z,1.40
2019-04-03T15:17:39.990Z,5.40
2019-04-03T15:20:11.554Z,2.20
2019-04-03T15:22:41.505Z,1.90
2019-04-03T15:25:12.918Z,2.23
2019-04-03T15:27:43.467Z,5.87
2019-04-03T15:30:14.848Z,2.73
2019-04-03T15:32:44.661Z,5.53
2019-04-03T15:35:14.889Z,7.23
2019-04-03T15:37:44.946Z,3.40
2019-04-03T15:40:14.794Z,4.57
2019-04-03T15:42:44.635Z,4.83
2019-04-03T15:45:14.599Z,3.60
2019-04-03T15:47:47.257Z,7.20
2019-04-03T15:50:38.393Z,6.67
2019-04-03T15:53:08.247Z,5.20
2019-04-03T15:55:39.357Z,6.10
2019-04-03T15:58:09.412Z,5.47
2019-04-03T16:00:42.071Z,3.23
2019-04-03T16:03:10.820Z,6.63
2019-04-03T16:05:40.842Z,3.27
2019-04-03T16:08:12.433Z,3.07
2019-04-03T16:10:42.052Z,2.80
2019-04-03T16:13:13.555Z,3.50
2019-04-03T16:15:43.153Z,3.20
2019-04-03T16:18:12.946Z,1.80
2019-04-03T16:20:42.717Z,3.53
2019-04-03T16:23:12.863Z,2.17
2019-04-03T16:25:42.584Z,4.20
2019-04-03T16:28:13.624Z,1.60
2019-04-03T16:30:44.993Z,2.00
2019-04-03T16:33:22.905Z,3.83
2019-04-03T16:36:06.896Z,2.97
2019-04-03T16:38:37.073Z,3.17
2019-04-03T16:41:07.857Z,2.90
2019-04-03T16:43:38.178Z,3.63
2019-04-03T16:46:09.797Z,3.30
2019-04-03T16:48:39.738Z,7.17
2019-04-03T16:51:09.941Z,5.07
2019-04-03T16:53:40.173Z,2.80
2019-04-03T16:56:09.971Z,3.07
2019-04-03T16:58:39.738Z,4.13
2019-04-03T17:01:12.941Z,4.23
2019-04-03T17:03:41.083Z,4.20
2019-04-03T17:06:11.278Z,3.33
2019-04-03T17:08:41.217Z,8.97
2019-04-03T17:11:12.074Z,5.63
2019-04-03T17:13:42.180Z,4.70
2019-04-03T17:16:14.484Z,4.27
2019-04-03T17:18:43.305Z,6.00
2019-04-03T17:21:13.043Z,5.33
2019-04-03T17:23:44.820Z,3.10
2019-04-03T17:26:13.960Z,5.73
2019-04-03T17:28:43.633Z,4.57
2019-04-03T17:31:13.324Z,3.60
2019-04-03T17:33:43.143Z,5.83
2019-04-03T17:36:12.951Z,2.93
2019-04-03T17:38:42.777Z,4.03
2019-04-03T17:41:12.528Z,4.40
2019-04-03T17:43:43.316Z,6.07
2019-04-03T17:46:13.560Z,5.37
2019-04-03T17:48:43.181Z,2.73
2019-04-03T17:51:12.971Z,5.77
2019-04-03T17:53:42.781Z,4.63
2019-04-03T17:56:13.042Z,4.00
2019-04-03T17:58:42.788Z,9.57
2019-04-03T18:01:12.416Z,5.00
2019-04-03T18:03:47.858Z,4.93
2019-04-03T18:06:18.655Z,4.47
2019-04-03T18:08:48.849Z,4.87
2019-04-03T18:11:18.568Z,6.07
2019-04-03T18:13:48.716Z,13.50
2019-04-03T18:16:18.643Z,8.20
2019-04-03T18:18:49.870Z,5.23
2019-04-03T18:21:19.882Z,8.63
2019-04-03T18:23:52.660Z,8.90
2019-04-03T18:26:21.117Z,3.10
2019-04-03T18:28:52.595Z,5.67
2019-04-03T18:31:22.304Z,5.47
2019-04-03T18:33:51.996Z,5.33
2019-04-03T18:36:22.571Z,6.53
2019-04-03T18:38:52.532Z,6.00
2019-04-03T18:41:22.500Z,4.33
2019-04-03T18:43:54.194Z,7.40
2019-04-03T18:46:31.984Z,4.03
2019-04-03T18:49:00.794Z,4.37
2019-04-03T18:51:26.641Z,7.03
2019-04-03T18:53:56.463Z,6.43
2019-04-03T18:56:26.198Z,4.83
2019-04-03T18:58:55.919Z,5.60
2019-04-03T19:01:26.071Z,5.50
2019-04-03T19:03:56.070Z,3.60
2019-04-03T19:06:26.001Z,4.97
2019-04-03T19:08:55.710Z,6.10
2019-04-03T19:11:25.454Z,5.43
2019-04-03T19:13:55.035Z,5.03
2019-04-03T19:16:29.722Z,6.33
2019-04-03T19:19:07.442Z,8.83
2019-04-03T19:21:28.696Z,5.13
2019-04-03T19:23:58.826Z,8.40
2019-04-03T19:26:30.061Z,8.27
2019-04-03T19:28:59.978Z,8.27
2019-04-03T19:31:29.618Z,8.73
2019-04-03T19:33:59.480Z,9.17
2019-04-03T19:36:29.853Z,10.63
2019-04-03T19:39:00.163Z,12.33
2019-04-03T19:41:30.220Z,10.20
2019-04-03T19:44:00.768Z,13.93
2019-04-03T19:46:30.771Z,14.37
2019-04-03T19:49:00.495Z,12.63
2019-04-03T19:51:30.150Z,13.03
2019-04-03T19:54:00.222Z,11.30
2019-04-03T19:56:30.320Z,10.50
2019-04-03T19:59:19.311Z,12.83
2019-04-03T20:01:49.052Z,13.30
2019-04-03T20:04:19.118Z,12.27
2019-04-03T20:06:48.919Z,8.13
2019-04-03T20:09:18.818Z,10.30
2019-04-03T20:11:48.733Z,13.10
2019-04-03T20:14:18.334Z,8.63
2019-04-03T20:16:47.992Z,9.10
2019-04-03T20:19:17.668Z,5.87
2019-04-03T20:21:47.522Z,7.57
2019-04-03T20:24:17.193Z,4.20
2019-04-03T20:26:47.095Z,5.60
2019-04-03T20:29:16.887Z,8.40
2019-04-03T20:31:46.455Z,5.40
2019-04-03T20:34:16.130Z,5.73
2019-04-03T20:36:45.789Z,6.73
2019-04-03T20:39:15.570Z,6.43
2019-04-03T20:41:45.281Z,5.47
2019-04-03T20:44:16.937Z,5.33
2019-04-03T20:46:46.537Z,4.50
2019-04-03T20:49:16.383Z,4.60
2019-04-03T20:51:48.493Z,4.13
2019-04-03T20:54:19.224Z,6.07
2019-04-03T20:57:08.002Z,2.93
2019-04-03T20:59:37.985Z,8.13
2019-04-03T21:02:08.277Z,5.83
2019-04-03T21:04:38.898Z,5.63
2019-04-03T21:07:27.831Z,7.03
2019-04-03T21:10:00.627Z,4.73
2019-04-03T21:12:28.791Z,6.10
2019-04-03T21:15:08.196Z,7.80
2019-04-03T21:17:29.711Z,10.13
2019-04-03T21:19:59.536Z,10.93
2019-04-03T21:22:30.270Z,10.13
2019-04-03T21:25:00.271Z,6.40
2019-04-03T21:27:29.782Z,7.80
2019-04-03T21:29:59.527Z,7.60
2019-04-03T21:32:29.458Z,6.43
2019-04-03T21:34:59.266Z,7.17
2019-04-03T21:37:28.868Z,6.73
2019-04-03T21:40:01.880Z,7.50
2019-04-03T21:42:29.771Z,9.10
2019-04-03T21:45:02.308Z,6.77
2019-04-03T21:47:30.651Z,6.90
2019-04-03T21:50:03.367Z,7.23
2019-04-03T21:52:31.906Z,7.90
2019-04-03T21:55:08.250Z,8.03
2019-04-03T21:57:38.596Z,6.30
2019-04-03T22:00:13.193Z,6.23
2019-04-03T22:02:44.882Z,6.70
2019-04-03T22:05:13.638Z,8.17
2019-04-03T22:07:43.242Z,11.23
2019-04-03T22:10:12.944Z,10.40
2019-04-03T22:12:42.571Z,8.13
2019-04-03T22:15:14.392Z,7.50
2019-04-03T22:17:43.888Z,5.83
2019-04-03T22:20:13.659Z,11.80
2019-04-03T22:22:43.263Z,7.90
2019-04-03T22:25:13.006Z,6.87
2019-04-03T22:27:43.314Z,7.60
2019-04-03T22:30:13.094Z,8.13
2019-04-03T22:32:42.670Z,8.43
2019-04-03T22:35:12.279Z,8.90
2019-04-03T22:37:41.947Z,7.87
2019-04-03T22:40:11.706Z,7.30
2019-04-03T22:42:41.430Z,7.03
2019-04-03T22:45:11.061Z,6.90
2019-04-03T22:47:40.640Z,8.67
2019-04-03T22:50:10.349Z,10.63
2019-04-03T22:52:40.538Z,12.13
2019-04-03T22:55:10.242Z,10.13
2019-04-03T22:57:39.850Z,9.70
2019-04-03T23:00:10.215Z,8.20
2019-04-03T23:02:40.026Z,10.53
2019-04-03T23:05:10.025Z,9.17
2019-04-03T23:07:39.630Z,11.23
2019-04-03T23:10:09.446Z,11.13
2019-04-03T23:12:39.105Z,10.97
2019-04-03T23:15:09.681Z,10.13
2019-04-03T23:17:39.380Z,8.10
2019-04-03T23:20:09.274Z,10.27
2019-04-03T23:22:39.004Z,7.60
2019-04-03T23:25:09.031Z,9.77
2019-04-03T23:27:38.745Z,9.93
2019-04-03T23:30:10.700Z,11.50
2019-04-03T23:32:39.991Z,14.07
2019-04-03T23:35:09.659Z,15.93
2019-04-03T23:37:58.602Z,10.07
2019-04-03T23:40:28.185Z,10.17
2019-04-03T23:42:57.842Z,12.20
2019-04-03T23:45:29.216Z,11.20
2019-04-03T23:47:59.180Z,12.07
2019-04-03T23:50:28.777Z,9.53
2019-04-03T23:52:59.088Z,18.67
2019-04-03T23:55:30.034Z,14.80
2019-04-03T23:57:59.765Z,10.63
